Fiatt, Illinois
Current Conditions -  °F | °C
As of 3:35 PM on Friday 31 Oct 2014 (Local Time) from KMQB Reporting Station
Clear Clear  
Wind Chill: 36°   Ceiling: Unl
Heat Index: 44°   Visibility: 10mi
Dew Point: 19°   Wind: 18mph
Humidity: 37%   Direction: 360°N
Pressure: 30.35"   Gusts: 32mph
Location:  40.56°N, 90.18°W
Report Text: KMQB 312035Z AUTO 36016G28KT 10SM CLR 07/M07 A3035 RMK AO2 T00671071
Loading
Personal Weather Stations






























Interactive Weather Map New forecast layout! Learn more

10-Day Weather Forecast

Advertisements
Track Severe Weather on mobile